createdAt,value
2022-11-24T00:55:02.395Z,4.80
2022-11-24T00:57:33.710Z,3.50
2022-11-24T01:00:04.602Z,2.67
2022-11-24T01:02:35.475Z,2.10
2022-11-24T01:05:06.370Z,4.93
2022-11-24T01:07:37.562Z,5.60
2022-11-24T01:10:12.027Z,3.70
2022-11-24T01:12:42.654Z,4.70
2022-11-24T01:15:13.428Z,6.33
2022-11-24T01:17:44.037Z,4.10
2022-11-24T01:20:15.309Z,4.67
2022-11-24T01:22:46.173Z,4.17
2022-11-24T01:25:18.927Z,3.70
2022-11-24T01:27:49.803Z,5.40
2022-11-24T01:30:20.763Z,8.47
2022-11-24T01:32:51.582Z,14.50
2022-11-24T01:35:22.225Z,11.43
2022-11-24T01:37:52.819Z,7.10
2022-11-24T01:40:25.933Z,3.40
2022-11-24T01:42:56.580Z,7.27
2022-11-24T01:45:45.460Z,9.37
2022-11-24T01:48:27.484Z,7.00
2022-11-24T01:51:06.627Z,6.77
2022-11-24T01:53:37.958Z,10.37
2022-11-24T01:56:11.689Z,11.17
2022-11-24T01:58:44.860Z,9.40
2022-11-24T02:01:16.251Z,8.87
2022-11-24T02:03:50.081Z,6.80
2022-11-24T02:06:26.043Z,7.23
2022-11-24T02:09:03.289Z,5.63
2022-11-24T02:11:38.980Z,5.40
2022-11-24T02:14:13.896Z,4.57
2022-11-24T02:16:47.186Z,7.80
2022-11-24T02:19:27.714Z,7.20
2022-11-24T02:21:58.388Z,5.33
2022-11-24T02:24:35.399Z,5.33
2022-11-24T02:27:08.095Z,8.00
2022-11-24T02:29:38.976Z,7.23
2022-11-24T02:32:12.754Z,6.83
2022-11-24T02:34:43.433Z,7.53
2022-11-24T02:37:14.481Z,5.17
2022-11-24T02:39:45.817Z,4.50
2022-11-24T02:42:19.005Z,5.03
2022-11-24T02:44:55.974Z,6.13
2022-11-24T02:47:26.598Z,3.77
2022-11-24T02:49:57.492Z,3.20
2022-11-24T02:52:28.942Z,3.40
2022-11-24T02:54:59.853Z,4.33
2022-11-24T02:57:32.635Z,5.00
2022-11-24T03:00:03.279Z,5.20
2022-11-24T03:02:33.993Z,4.60
2022-11-24T03:05:06.398Z,4.37
2022-11-24T03:07:37.810Z,3.37
2022-11-24T03:10:10.522Z,3.00
2022-11-24T03:12:44.305Z,3.00
2022-11-24T03:15:15.400Z,3.17
2022-11-24T03:17:47.000Z,2.93
2022-11-24T03:20:18.122Z,3.00
2022-11-24T03:22:49.270Z,3.27
2022-11-24T03:25:21.374Z,3.83
2022-11-24T03:27:55.034Z,3.50
2022-11-24T03:30:26.567Z,3.70
2022-11-24T03:32:59.324Z,2.90
2022-11-24T03:35:30.424Z,3.43
2022-11-24T03:38:01.794Z,3.07
2022-11-24T03:40:33.203Z,2.83
2022-11-24T03:43:07.277Z,3.30
2022-11-24T03:45:46.011Z,3.20
2022-11-24T03:48:18.196Z,3.30
2022-11-24T03:50:57.691Z,3.80
2022-11-24T03:53:30.683Z,3.90
2022-11-24T03:56:03.234Z,3.57
2022-11-24T03:58:37.208Z,3.50
2022-11-24T04:01:08.900Z,3.50
2022-11-24T04:03:41.089Z,3.53
2022-11-24T04:06:12.681Z,3.17
2022-11-24T04:08:45.097Z,3.27
2022-11-24T04:11:36.789Z,3.03
2022-11-24T04:14:12.097Z,2.83
2022-11-24T04:16:44.730Z,3.57
2022-11-24T04:19:16.395Z,4.20
2022-11-24T04:21:49.288Z,3.37
2022-11-24T04:24:20.957Z,3.00
2022-11-24T04:26:53.630Z,3.73
2022-11-24T04:29:26.521Z,3.43
2022-11-24T04:31:57.563Z,3.40
2022-11-24T04:34:29.407Z,3.30
2022-11-24T04:37:01.088Z,3.10
2022-11-24T04:39:32.722Z,3.20
2022-11-24T04:42:03.631Z,2.90
2022-11-24T04:44:37.373Z,3.07
2022-11-24T04:47:09.167Z,2.70
2022-11-24T04:49:40.618Z,2.80
2022-11-24T04:52:12.301Z,2.60
2022-11-24T04:54:43.403Z,2.93
2022-11-24T04:57:19.609Z,2.40
2022-11-24T04:59:53.113Z,2.70
2022-11-24T05:02:24.689Z,2.43
2022-11-24T05:04:56.292Z,2.60
2022-11-24T05:07:27.410Z,2.23
2022-11-24T05:10:15.768Z,2.37
2022-11-24T05:12:51.163Z,2.20
2022-11-24T05:15:25.719Z,2.33
2022-11-24T05:17:58.036Z,2.23
2022-11-24T05:20:29.389Z,2.00
2022-11-24T05:23:05.019Z,1.90
2022-11-24T05:25:36.126Z,2.40
2022-11-24T05:28:10.806Z,1.90
2022-11-24T05:30:44.402Z,1.60
2022-11-24T05:33:20.499Z,2.00
2022-11-24T05:35:52.282Z,1.77
2022-11-24T05:38:23.436Z,1.53
2022-11-24T05:40:54.507Z,1.50
2022-11-24T05:43:25.547Z,1.40
2022-11-24T05:46:01.399Z,1.50
2022-11-24T05:48:32.396Z,1.53
2022-11-24T05:51:08.973Z,1.50
2022-11-24T05:53:40.764Z,1.70
2022-11-24T05:56:12.309Z,1.60
2022-11-24T05:58:43.460Z,1.50
2022-11-24T06:01:15.926Z,1.50
2022-11-24T06:03:47.984Z,1.70
2022-11-24T06:06:19.058Z,1.47
2022-11-24T06:08:51.807Z,1.50
2022-11-24T06:11:24.064Z,1.50
2022-11-24T06:13:56.107Z,1.20
2022-11-24T06:16:29.056Z,1.20
2022-11-24T06:19:00.122Z,1.60
2022-11-24T06:21:31.651Z,1.30
2022-11-24T06:24:03.593Z,1.00
2022-11-24T06:26:34.676Z,1.33
2022-11-24T06:29:06.181Z,1.63
2022-11-24T06:31:39.583Z,1.30
2022-11-24T06:34:11.941Z,1.20
2022-11-24T06:36:44.557Z,1.60
2022-11-24T06:39:16.698Z,1.80
2022-11-24T06:41:48.430Z,2.20
2022-11-24T06:44:19.488Z,2.33
2022-11-24T06:46:52.556Z,2.77
2022-11-24T06:49:24.387Z,2.80
2022-11-24T06:51:58.045Z,3.27
2022-11-24T06:54:29.182Z,2.43
2022-11-24T06:57:00.847Z,2.73
2022-11-24T06:59:31.900Z,3.13
2022-11-24T07:02:05.163Z,2.93
2022-11-24T07:04:36.236Z,2.27
2022-11-24T07:07:07.567Z,2.60
2022-11-24T07:09:39.077Z,2.30
2022-11-24T07:12:11.071Z,2.10
2022-11-24T07:14:43.184Z,2.43
2022-11-24T07:17:16.262Z,2.43
2022-11-24T07:19:47.240Z,2.00
2022-11-24T07:22:18.910Z,1.73
2022-11-24T07:24:51.567Z,2.47
2022-11-24T07:27:23.186Z,2.23
2022-11-24T07:29:54.670Z,2.30
2022-11-24T07:32:28.343Z,2.43
2022-11-24T07:34:59.971Z,2.13
2022-11-24T07:37:31.878Z,1.70
2022-11-24T07:40:03.643Z,1.57
2022-11-24T07:42:34.902Z,1.60
2022-11-24T07:45:06.597Z,1.10
2022-11-24T07:47:44.274Z,1.40
2022-11-24T07:50:15.959Z,1.27
2022-11-24T07:52:47.071Z,1.37
2022-11-24T07:55:19.025Z,1.33
2022-11-24T07:57:51.023Z,1.33
2022-11-24T08:00:22.995Z,1.10
2022-11-24T08:02:57.215Z,1.20
2022-11-24T08:05:28.419Z,1.20
2022-11-24T08:07:59.897Z,1.40
2022-11-24T08:10:30.931Z,1.50
2022-11-24T08:13:05.385Z,1.40
2022-11-24T08:15:36.422Z,1.03
2022-11-24T08:18:09.934Z,0.90
2022-11-24T08:20:41.575Z,1.23
2022-11-24T08:23:13.289Z,1.30
2022-11-24T08:25:44.473Z,1.60
2022-11-24T08:28:16.332Z,1.40
2022-11-24T08:30:47.879Z,1.30
2022-11-24T08:33:20.971Z,1.23
2022-11-24T08:35:52.501Z,1.50
2022-11-24T08:38:23.564Z,1.10
2022-11-24T08:40:54.574Z,1.03
2022-11-24T08:43:26.159Z,0.90
2022-11-24T08:45:57.688Z,0.97
2022-11-24T08:48:31.028Z,1.00
2022-11-24T08:51:03.340Z,0.93
